KEND/END METAR and TAF weather

Enter ICAO airport designator
Station Type Date Time Source
KEND METAR 2020/07/06 18:56 UTC NOAA

KEND 061856Z AUTO 12006KT 10SM FEW055 SCT070 SCT190 34/20 A2996 RMK AO2 SLP131 T03360203 $


Station Type Date Time Source
KEND Decoded METAR 2020/07/06 18:56 UTC NOAA

Vance Air Force Base / Enid, OK, United States (KEND) 36-20N 097-55W
Jul 06, 2020 - 02:56 PM EDT / 2020.07.06 1856 UTC
Wind: from the ESE (120 degrees) at 7 MPH (6 KT):0
Visibility: 10 mile(s):0
Sky conditions: partly cloudy
Temperature: 92.5 F (33.6 C)
Heat index: 97.0 F (36.1 C):1
Dew Point: 68.5 F (20.3 C)
Relative Humidity: 45%
Pressure (altimeter): 29.96 in. Hg (1014 hPa)
ob: KEND 061856Z AUTO 12006KT 10SM FEW055 SCT070 SCT190 34/20 A2996 RMK AO2 SLP131 T03360203
cycle: 19

Station Type Date Time Source
KEND TAF 2020/07/02 22:43 UTC NOAA

TAF KEND 022230Z 0222/0404 16012G20KT 9999 SCT050 QNH2991INS
BECMG 0223/0224 16012KT 9999 SCT070 QNH2985INS
TEMPO 0302/0305 VRB30G40KT 6000 TSRA BKN040CB
BECMG 0305/0306 VRB06KT 8000 BR FEW100 QNH2993INS TX36/0222Z TN26/0311Z LAST NO
AMDS AFT 0222 NEXT 0710

Example: see airport list